Gorum, Louisiana
Current Conditions -  °F | °C
As of 8:33 AM on Saturday 25 Oct 2014 (Local Time) from KAQV Reporting Station
Haze Haze  
Wind Chill: 55°   Ceiling: Unl
Heat Index: 55°   Visibility: 3mi
Dew Point: 53°   Wind: 0mph
Humidity: 93%   Direction: NA
Pressure: 30.16"   Gusts: NA
Location:  31.43°N, 92.94°W
Report Text: KAQV 251333Z AUTO 00000KT 3SM BR CLR 13/12 A3016 RMK AO2 T01280117
Loading
Personal Weather Stations






























Interactive Weather Map
Tropical Storm Tracking
New forecast layout! Learn more

10-Day Weather Forecast

Advertisements
Track Severe Weather on mobile